createdAt,value
2023-05-07T00:01:38.197Z,11.52
2023-05-07T00:04:05.120Z,13.18
2023-05-07T00:06:33.354Z,9.45
2023-05-07T00:09:01.803Z,11.38
2023-05-07T00:11:29.209Z,11.57
2023-05-07T00:13:55.728Z,11.10
2023-05-07T00:16:22.465Z,12.23
2023-05-07T00:18:49.173Z,17.23
2023-05-07T00:21:15.777Z,13.32
2023-05-07T00:23:42.303Z,14.07
2023-05-07T00:26:08.851Z,13.27
2023-05-07T00:28:35.421Z,14.65
2023-05-07T00:31:01.924Z,13.00
2023-05-07T00:33:28.565Z,14.05
2023-05-07T00:35:55.380Z,14.80
2023-05-07T00:38:21.865Z,15.45
2023-05-07T00:40:48.415Z,13.35
2023-05-07T00:43:14.915Z,13.93
2023-05-07T00:45:41.606Z,12.93
2023-05-07T00:48:08.403Z,13.23
2023-05-07T00:50:35.073Z,13.57
2023-05-07T00:53:01.692Z,13.85
2023-05-07T00:55:28.253Z,13.40
2023-05-07T00:57:54.974Z,14.05
2023-05-07T01:00:22.065Z,12.33
2023-05-07T01:02:48.786Z,14.50
2023-05-07T01:05:18.964Z,12.77
2023-05-07T01:07:46.793Z,11.77
2023-05-07T01:10:38.768Z,13.45
2023-05-07T01:13:06.307Z,15.33
2023-05-07T01:15:33.012Z,15.70
2023-05-07T01:17:59.656Z,16.20
2023-05-07T01:20:32.520Z,21.98
2023-05-07T01:23:00.030Z,14.70
2023-05-07T01:25:26.892Z,15.40
2023-05-07T01:27:56.650Z,12.63
2023-05-07T01:30:28.203Z,15.35
2023-05-07T01:33:01.043Z,11.48
2023-05-07T01:35:36.749Z,14.05
2023-05-07T01:38:05.455Z,14.77
2023-05-07T01:40:32.032Z,14.73
2023-05-07T01:42:58.706Z,13.43
2023-05-07T01:45:25.976Z,12.55
2023-05-07T01:47:53.889Z,15.55
2023-05-07T01:50:21.269Z,18.77
2023-05-07T01:52:48.416Z,13.32
2023-05-07T01:55:14.934Z,14.98
2023-05-07T01:57:42.054Z,16.13
2023-05-07T02:00:10.120Z,17.05
2023-05-07T02:02:44.554Z,18.90
2023-05-07T02:05:21.986Z,15.20
2023-05-07T02:07:55.905Z,13.77
2023-05-07T02:10:22.785Z,13.25
2023-05-07T02:12:49.331Z,11.45
2023-05-07T02:15:15.984Z,11.23
2023-05-07T02:18:02.909Z,13.75
2023-05-07T02:20:29.892Z,12.98
2023-05-07T02:22:57.089Z,13.63
2023-05-07T02:25:24.979Z,17.70
2023-05-07T02:27:52.008Z,15.00
2023-05-07T02:30:22.435Z,15.23
2023-05-07T02:32:52.289Z,13.88
2023-05-07T02:35:18.958Z,13.27
2023-05-07T02:37:45.527Z,13.93
2023-05-07T02:40:12.883Z,13.47
2023-05-07T02:42:39.697Z,16.38
2023-05-07T02:45:06.794Z,20.30
2023-05-07T02:47:33.535Z,15.15
2023-05-07T02:50:01.657Z,15.23
2023-05-07T02:52:28.335Z,16.30
2023-05-07T02:54:54.885Z,16.75
2023-05-07T02:57:21.470Z,16.42
2023-05-07T02:59:48.009Z,16.92
2023-05-07T03:02:15.666Z,16.05
2023-05-07T03:04:43.243Z,15.70
2023-05-07T03:07:09.759Z,16.25
2023-05-07T03:09:36.231Z,17.08
2023-05-07T03:12:03.387Z,11.95
2023-05-07T03:14:30.013Z,16.05
2023-05-07T03:16:56.820Z,18.23
2023-05-07T03:19:23.365Z,14.75
2023-05-07T03:21:49.892Z,20.35
2023-05-07T03:24:16.495Z,19.95
2023-05-07T03:26:43.033Z,16.15
2023-05-07T03:29:10.021Z,16.03
2023-05-07T03:31:36.914Z,14.40
2023-05-07T03:34:03.552Z,14.88
2023-05-07T03:36:30.096Z,17.95
2023-05-07T03:38:57.346Z,12.30
2023-05-07T03:41:27.058Z,21.33
2023-05-07T03:43:53.976Z,16.55
2023-05-07T03:46:21.125Z,19.05
2023-05-07T03:48:48.125Z,17.13
2023-05-07T03:51:15.984Z,14.10
2023-05-07T03:53:42.550Z,17.17
2023-05-07T03:56:09.093Z,18.20
2023-05-07T03:58:38.500Z,15.07
2023-05-07T04:01:08.895Z,19.38
2023-05-07T04:03:35.887Z,18.35
2023-05-07T04:06:02.545Z,16.17
2023-05-07T04:08:31.607Z,16.98
2023-05-07T04:10:59.332Z,17.60
2023-05-07T04:13:31.298Z,17.27
2023-05-07T04:15:58.908Z,17.85
2023-05-07T04:18:26.558Z,16.93
2023-05-07T04:20:53.200Z,17.17
2023-05-07T04:23:19.704Z,20.42
2023-05-07T04:25:46.586Z,21.45
2023-05-07T04:28:26.783Z,17.75
2023-05-07T04:30:53.632Z,19.13
2023-05-07T04:33:21.751Z,17.55
2023-05-07T04:35:49.924Z,20.58
2023-05-07T04:38:17.443Z,17.23
2023-05-07T04:40:45.113Z,20.15
2023-05-07T04:43:15.710Z,18.37
2023-05-07T04:45:47.518Z,21.05
2023-05-07T04:48:15.670Z,22.38
2023-05-07T04:50:42.313Z,23.30
2023-05-07T04:53:09.422Z,15.55
2023-05-07T04:55:36.140Z,18.93
2023-05-07T04:58:04.045Z,19.10
2023-05-07T05:00:34.312Z,21.98
2023-05-07T05:03:03.788Z,18.50
2023-05-07T05:05:30.684Z,23.67
2023-05-07T05:07:58.456Z,24.30
2023-05-07T05:10:29.545Z,21.80
2023-05-07T05:12:56.893Z,21.15
2023-05-07T05:15:24.508Z,22.60
2023-05-07T05:17:52.288Z,17.02
2023-05-07T05:20:19.449Z,19.57
2023-05-07T05:22:47.637Z,19.30
2023-05-07T05:25:14.156Z,19.05
2023-05-07T05:27:40.776Z,19.23
2023-05-07T05:30:08.811Z,21.95
2023-05-07T05:32:36.076Z,18.47
2023-05-07T05:35:02.799Z,19.90
2023-05-07T05:37:31.193Z,24.25
2023-05-07T05:39:59.258Z,20.80
2023-05-07T05:42:27.491Z,18.15
2023-05-07T05:44:55.222Z,19.80
2023-05-07T05:47:23.402Z,20.40
2023-05-07T05:49:50.696Z,21.73
2023-05-07T05:52:18.180Z,20.08
2023-05-07T05:54:46.134Z,19.73
2023-05-07T05:57:12.716Z,22.20
2023-05-07T05:59:39.757Z,21.38
2023-05-07T06:02:07.339Z,21.88
2023-05-07T06:04:34.454Z,21.88
2023-05-07T06:07:01.200Z,23.30
2023-05-07T06:09:27.781Z,18.23
2023-05-07T06:11:54.561Z,24.73
2023-05-07T06:14:21.089Z,23.45
2023-05-07T06:16:47.972Z,21.23
2023-05-07T06:19:14.544Z,21.45
2023-05-07T06:21:42.078Z,21.50
2023-05-07T06:24:08.892Z,21.83
2023-05-07T06:26:37.414Z,24.92
2023-05-07T06:29:04.088Z,19.77
2023-05-07T06:31:34.727Z,24.60
2023-05-07T06:34:05.957Z,22.93
2023-05-07T06:36:36.503Z,23.67
2023-05-07T06:39:13.079Z,21.80
2023-05-07T06:41:39.984Z,23.35
2023-05-07T06:44:17.876Z,25.42
2023-05-07T06:46:48.386Z,20.80
2023-05-07T06:49:15.016Z,25.67
2023-05-07T06:51:42.093Z,22.42
2023-05-07T06:54:08.777Z,22.63
2023-05-07T06:56:37.953Z,25.85
2023-05-07T06:59:05.570Z,21.80
2023-05-07T07:01:36.425Z,23.65
2023-05-07T07:04:04.281Z,25.45
2023-05-07T07:06:32.804Z,25.33
2023-05-07T07:09:01.501Z,24.55
2023-05-07T07:11:28.809Z,25.43
2023-05-07T07:13:55.725Z,27.90
2023-05-07T07:16:23.164Z,24.35
2023-05-07T07:18:51.957Z,22.80
2023-05-07T07:21:18.761Z,25.45
2023-05-07T07:23:45.377Z,26.57
2023-05-07T07:26:12.190Z,27.90
2023-05-07T07:28:48.013Z,28.38
2023-05-07T07:31:18.313Z,28.17
2023-05-07T07:33:45.264Z,28.30
2023-05-07T07:36:11.885Z,21.40
2023-05-07T07:38:39.272Z,25.40
2023-05-07T07:41:08.713Z,23.40
2023-05-07T07:43:36.450Z,24.55
2023-05-07T07:46:03.837Z,24.33
2023-05-07T07:48:31.703Z,23.63
2023-05-07T07:50:59.296Z,24.77
2023-05-07T07:53:26.326Z,25.60
2023-05-07T07:55:54.452Z,22.27
2023-05-07T07:58:27.914Z,25.95
2023-05-07T08:00:56.872Z,21.63
2023-05-07T08:03:24.287Z,23.83
2023-05-07T08:05:54.394Z,26.70
2023-05-07T08:08:21.461Z,22.83
2023-05-07T08:10:50.979Z,23.30
2023-05-07T08:13:24.665Z,24.97
2023-05-07T08:15:51.722Z,22.65
2023-05-07T08:18:18.512Z,24.70
2023-05-07T08:20:45.859Z,25.40
2023-05-07T08:23:16.682Z,24.33
2023-05-07T08:25:44.890Z,26.73
2023-05-07T08:28:11.712Z,24.90
2023-05-07T08:30:39.803Z,24.77
2023-05-07T08:33:06.423Z,22.42
2023-05-07T08:35:33.028Z,21.88
2023-05-07T08:37:59.832Z,21.97
2023-05-07T08:40:27.773Z,24.58
2023-05-07T08:42:57.892Z,22.58
2023-05-07T08:45:25.351Z,21.45
2023-05-07T08:47:57.311Z,25.83
2023-05-07T08:50:26.218Z,24.43
2023-05-07T08:52:53.280Z,26.63
2023-05-07T08:55:22.554Z,25.00
2023-05-07T08:57:49.416Z,21.83
2023-05-07T09:00:17.509Z,22.63
2023-05-07T09:02:47.415Z,21.73
2023-05-07T09:05:14.388Z,23.92
2023-05-07T09:07:41.141Z,21.65
2023-05-07T09:10:09.137Z,26.80
2023-05-07T09:12:38.220Z,19.13
2023-05-07T09:15:07.530Z,21.93
2023-05-07T09:17:34.809Z,24.50
2023-05-07T09:20:09.299Z,25.23
2023-05-07T09:22:38.446Z,26.50
2023-05-07T09:25:10.499Z,24.95
2023-05-07T09:27:39.067Z,22.23
2023-05-07T09:30:07.325Z,21.98
2023-05-07T09:32:41.268Z,26.58
2023-05-07T09:35:17.920Z,21.38
2023-05-07T09:37:47.576Z,21.13
2023-05-07T09:40:25.592Z,18.70
2023-05-07T09:42:54.278Z,24.98
2023-05-07T09:45:29.091Z,21.48
2023-05-07T09:47:58.945Z,26.35
2023-05-07T09:50:29.601Z,21.08
2023-05-07T09:52:57.882Z,22.27
2023-05-07T09:55:26.817Z,25.40
2023-05-07T09:57:54.804Z,21.33
2023-05-07T10:00:22.356Z,20.77
2023-05-07T10:02:53.705Z,24.38
2023-05-07T10:05:28.714Z,21.53
2023-05-07T10:07:58.564Z,23.88
2023-05-07T10:10:26.285Z,20.83
2023-05-07T10:12:54.077Z,23.58
2023-05-07T10:15:30.273Z,24.38
2023-05-07T10:17:58.465Z,21.07
2023-05-07T10:20:26.956Z,23.25
2023-05-07T10:22:57.814Z,23.80
2023-05-07T10:25:31.941Z,25.88
2023-05-07T10:28:07.460Z,24.17
2023-05-07T10:31:09.201Z,25.83
2023-05-07T10:33:43.196Z,24.40
2023-05-07T10:36:10.462Z,21.67
2023-05-07T10:38:37.348Z,21.15
2023-05-07T10:41:06.596Z,21.73
2023-05-07T10:43:43.169Z,22.10
2023-05-07T10:46:12.455Z,19.08
2023-05-07T10:49:03.768Z,20.63
2023-05-07T10:51:39.577Z,21.17
2023-05-07T10:54:16.490Z,21.05
2023-05-07T10:56:52.391Z,19.20
2023-05-07T10:59:32.449Z,20.92
2023-05-07T11:02:09.085Z,21.05
2023-05-07T11:05:21.900Z,23.05
2023-05-07T11:08:02.378Z,20.58
2023-05-07T11:10:56.044Z,21.50
2023-05-07T11:13:48.277Z,18.08
2023-05-07T11:16:37.824Z,19.65
2023-05-07T11:19:18.492Z,23.00
2023-05-07T11:21:49.599Z,22.20
2023-05-07T11:24:38.777Z,21.33
2023-05-07T11:27:05.713Z,17.95
2023-05-07T11:29:32.357Z,19.95
2023-05-07T11:32:06.997Z,21.98
2023-05-07T11:34:40.228Z,21.60
2023-05-07T11:37:07.092Z,22.17
2023-05-07T11:39:49.820Z,23.20
2023-05-07T11:42:32.660Z,20.35
2023-05-07T11:44:59.680Z,21.48
2023-05-07T11:47:30.989Z,17.02
2023-05-07T11:49:58.171Z,19.97
2023-05-07T11:52:25.777Z,21.48
2023-05-07T11:54:53.954Z,23.42
2023-05-07T11:57:20.982Z,20.23
2023-05-07T11:59:49.120Z,21.83
2023-05-07T12:02:16.475Z,23.40
2023-05-07T12:04:43.367Z,22.17
2023-05-07T12:07:16.878Z,22.27
2023-05-07T12:09:43.920Z,22.77
2023-05-07T12:12:10.766Z,22.55
2023-05-07T12:14:41.483Z,21.97
2023-05-07T12:17:13.000Z,21.33
2023-05-07T12:19:41.361Z,20.27
2023-05-07T12:22:11.667Z,24.95
2023-05-07T12:25:00.385Z,19.00
2023-05-07T12:27:31.196Z,20.90
2023-05-07T12:29:58.713Z,20.50
2023-05-07T12:32:25.478Z,20.45
2023-05-07T12:34:53.123Z,18.00
2023-05-07T12:37:26.372Z,19.27
2023-05-07T12:40:07.413Z,20.30
2023-05-07T12:42:37.169Z,19.98
2023-05-07T12:45:14.881Z,19.67
2023-05-07T12:47:46.133Z,22.92
2023-05-07T12:50:14.320Z,20.45
2023-05-07T12:52:41.502Z,21.40
2023-05-07T12:55:09.695Z,19.50
2023-05-07T12:57:49.896Z,20.52
2023-05-07T13:00:16.958Z,20.27
2023-05-07T13:02:47.409Z,18.40
2023-05-07T13:05:14.467Z,19.00
2023-05-07T13:07:48.598Z,18.77
2023-05-07T13:10:18.533Z,22.58
2023-05-07T13:12:45.906Z,19.40
2023-05-07T13:15:12.725Z,20.77
2023-05-07T13:17:39.545Z,20.87
2023-05-07T13:20:06.725Z,18.73
2023-05-07T13:22:33.297Z,16.00
2023-05-07T13:24:59.848Z,23.70
2023-05-07T13:27:27.057Z,19.83
2023-05-07T13:29:53.872Z,20.77
2023-05-07T13:32:20.603Z,19.52
2023-05-07T13:34:47.263Z,18.35
2023-05-07T13:37:13.811Z,19.65
2023-05-07T13:39:40.620Z,19.38
2023-05-07T13:42:07.384Z,21.80
2023-05-07T13:44:34.231Z,21.55
2023-05-07T13:47:01.541Z,19.90
2023-05-07T13:49:28.505Z,21.05
2023-05-07T13:51:55.277Z,21.25
2023-05-07T13:54:21.809Z,20.33
2023-05-07T13:56:48.524Z,19.17
2023-05-07T13:59:15.524Z,19.55
2023-05-07T14:01:42.507Z,18.00
2023-05-07T14:04:09.174Z,23.73
2023-05-07T14:06:35.873Z,22.13
2023-05-07T14:09:02.637Z,21.42
2023-05-07T14:11:29.527Z,20.02
2023-05-07T14:13:57.956Z,21.33
2023-05-07T14:16:24.610Z,19.17
2023-05-07T14:18:51.405Z,21.47
2023-05-07T14:21:17.946Z,19.95
2023-05-07T14:23:44.552Z,23.35
2023-05-07T14:26:11.258Z,18.73
2023-05-07T14:28:40.542Z,22.52
2023-05-07T14:31:07.528Z,23.83
2023-05-07T14:33:34.141Z,19.52
2023-05-07T14:36:00.647Z,18.52
2023-05-07T14:38:27.166Z,18.70
2023-05-07T14:40:56.745Z,20.35
2023-05-07T14:43:23.377Z,19.67
2023-05-07T14:45:51.119Z,20.55
2023-05-07T14:48:20.997Z,20.13
2023-05-07T14:50:49.179Z,20.80
2023-05-07T14:53:16.299Z,19.67
2023-05-07T14:55:43.050Z,18.60
2023-05-07T14:58:11.675Z,20.33
2023-05-07T15:00:38.255Z,19.85
2023-05-07T15:03:09.944Z,18.30
2023-05-07T15:05:37.516Z,21.30
2023-05-07T15:08:04.213Z,20.60
2023-05-07T15:10:30.935Z,18.23
2023-05-07T15:12:57.672Z,21.42
2023-05-07T15:15:24.293Z,18.65
2023-05-07T15:17:51.486Z,20.55
2023-05-07T15:20:18.637Z,19.43
2023-05-07T15:22:45.555Z,19.58
2023-05-07T15:25:12.795Z,20.70
2023-05-07T15:27:39.792Z,19.83
2023-05-07T15:30:07.055Z,18.83
2023-05-07T15:32:33.892Z,19.03
2023-05-07T15:35:00.451Z,19.38
2023-05-07T15:37:27.087Z,19.27
2023-05-07T15:39:53.720Z,19.45
2023-05-07T15:42:21.113Z,20.92
2023-05-07T15:44:47.744Z,20.27
2023-05-07T15:47:15.234Z,20.40
2023-05-07T15:49:42.569Z,19.08
2023-05-07T15:52:11.758Z,20.45
2023-05-07T15:54:41.170Z,19.77
2023-05-07T15:57:07.966Z,16.27
2023-05-07T15:59:36.156Z,13.82
2023-05-07T16:02:03.051Z,15.70
2023-05-07T16:04:29.741Z,13.80
2023-05-07T16:06:56.802Z,14.80
2023-05-07T16:09:25.067Z,11.37
2023-05-07T16:11:51.735Z,12.18
2023-05-07T16:14:18.412Z,13.38
2023-05-07T16:16:45.154Z,11.73
2023-05-07T16:19:11.760Z,13.80
2023-05-07T16:21:38.419Z,14.23
2023-05-07T16:24:05.042Z,15.85
2023-05-07T16:26:31.827Z,17.83
2023-05-07T16:29:01.902Z,17.70
2023-05-07T16:31:30.263Z,16.63
2023-05-07T16:33:57.007Z,16.10
2023-05-07T16:36:23.598Z,20.00
2023-05-07T16:38:50.325Z,19.92
2023-05-07T16:41:16.993Z,21.77
2023-05-07T16:43:43.961Z,22.20
2023-05-07T16:46:10.899Z,22.47
2023-05-07T16:48:37.521Z,20.98
2023-05-07T16:51:04.409Z,22.58
2023-05-07T16:53:31.020Z,22.85
2023-05-07T16:55:57.692Z,24.63
2023-05-07T16:58:24.824Z,20.03
2023-05-07T17:00:51.650Z,20.05
2023-05-07T17:03:19.477Z,20.15
2023-05-07T17:05:46.528Z,22.67
2023-05-07T17:08:13.882Z,19.83
2023-05-07T17:10:41.186Z,20.03
2023-05-07T17:13:07.926Z,22.15
2023-05-07T17:15:34.622Z,20.98
2023-05-07T17:18:01.317Z,22.52
2023-05-07T17:20:28.705Z,20.92
2023-05-07T17:22:55.815Z,24.60
2023-05-07T17:25:23.321Z,23.80
2023-05-07T17:27:50.194Z,22.17
2023-05-07T17:30:17.305Z,21.63
2023-05-07T17:32:46.866Z,18.75
2023-05-07T17:35:13.538Z,23.40
2023-05-07T17:37:40.403Z,22.73
2023-05-07T17:40:07.770Z,23.98
2023-05-07T17:42:40.394Z,27.15
2023-05-07T17:45:07.815Z,29.70
2023-05-07T17:47:35.633Z,24.97
2023-05-07T17:50:02.940Z,27.23
2023-05-07T17:52:29.490Z,28.70
2023-05-07T17:54:56.088Z,28.13
2023-05-07T17:57:22.751Z,25.90
2023-05-07T17:59:49.536Z,23.73
2023-05-07T18:02:16.284Z,28.30
2023-05-07T18:04:43.007Z,28.67
2023-05-07T18:07:09.712Z,28.42
2023-05-07T18:09:36.259Z,28.10
2023-05-07T18:12:02.807Z,30.47
2023-05-07T18:14:29.641Z,26.77
2023-05-07T18:16:56.344Z,24.50
2023-05-07T18:19:23.006Z,24.17
2023-05-07T18:21:49.748Z,23.15
2023-05-07T18:24:16.336Z,25.57
2023-05-07T18:26:42.962Z,28.77
2023-05-07T18:29:09.515Z,25.77
2023-05-07T18:31:37.865Z,25.63
2023-05-07T18:34:06.276Z,26.27
2023-05-07T18:36:32.957Z,21.60
2023-05-07T18:38:59.692Z,19.98
2023-05-07T18:41:26.292Z,22.00
2023-05-07T18:43:52.844Z,23.88
2023-05-07T18:46:19.794Z,23.48
2023-05-07T18:48:46.729Z,22.67
2023-05-07T18:51:13.346Z,23.23
2023-05-07T18:53:40.279Z,27.33
2023-05-07T18:56:08.959Z,19.70
2023-05-07T18:58:36.025Z,21.70
2023-05-07T19:01:08.230Z,21.13
2023-05-07T19:03:35.790Z,24.17
2023-05-07T19:06:02.966Z,23.17
2023-05-07T19:08:29.591Z,21.67
2023-05-07T19:10:56.560Z,25.95
2023-05-07T19:13:27.456Z,21.60
2023-05-07T19:15:54.938Z,28.20
2023-05-07T19:18:21.608Z,25.25
2023-05-07T19:20:50.220Z,24.25
2023-05-07T19:23:18.893Z,30.13
2023-05-07T19:25:45.735Z,33.33
2023-05-07T19:28:12.249Z,30.50
2023-05-07T19:30:40.061Z,32.88
2023-05-07T19:33:07.391Z,29.90
2023-05-07T19:35:35.282Z,32.20
2023-05-07T19:38:02.632Z,30.03
2023-05-07T19:40:31.318Z,27.63
2023-05-07T19:42:58.059Z,24.50
2023-05-07T19:45:24.834Z,26.83
2023-05-07T19:47:51.657Z,23.98
2023-05-07T19:50:20.716Z,26.27
2023-05-07T19:52:47.479Z,21.33
2023-05-07T19:55:14.568Z,22.80
2023-05-07T19:57:43.012Z,23.98
2023-05-07T20:00:15.600Z,24.60
2023-05-07T20:02:44.721Z,20.77
2023-05-07T20:05:12.600Z,22.75
2023-05-07T20:07:39.450Z,22.13
2023-05-07T20:10:06.791Z,17.55
2023-05-07T20:12:33.462Z,18.77
2023-05-07T20:15:01.022Z,21.20
2023-05-07T20:17:27.596Z,18.55
2023-05-07T20:19:55.561Z,19.77
2023-05-07T20:22:25.141Z,16.83
2023-05-07T20:24:51.789Z,23.85
2023-05-07T20:27:26.504Z,20.40
2023-05-07T20:29:53.797Z,18.83
2023-05-07T20:32:28.105Z,17.52
2023-05-07T20:34:54.741Z,16.02
2023-05-07T20:37:21.417Z,20.77
2023-05-07T20:39:48.117Z,16.43
2023-05-07T20:42:14.827Z,17.30
2023-05-07T20:44:41.488Z,18.90
2023-05-07T20:47:11.137Z,15.73
2023-05-07T20:49:37.881Z,18.00
2023-05-07T20:52:05.305Z,18.80
2023-05-07T20:54:32.041Z,21.05
2023-05-07T20:57:00.190Z,18.60
2023-05-07T20:59:27.096Z,20.75
2023-05-07T21:01:54.632Z,20.63
2023-05-07T21:04:22.907Z,18.43
2023-05-07T21:06:49.619Z,17.35
2023-05-07T21:09:16.389Z,18.15
2023-05-07T21:11:43.332Z,18.95
2023-05-07T21:14:10.065Z,17.83
2023-05-07T21:16:36.746Z,18.33
2023-05-07T21:19:03.876Z,16.25
2023-05-07T21:21:32.712Z,17.80
2023-05-07T21:23:59.797Z,15.82
2023-05-07T21:26:26.882Z,15.85
2023-05-07T21:29:01.104Z,16.87
2023-05-07T21:31:27.992Z,16.13
2023-05-07T21:33:57.509Z,16.13
2023-05-07T21:36:24.286Z,15.70
2023-05-07T21:38:51.152Z,14.18
2023-05-07T21:41:20.534Z,15.67
2023-05-07T21:43:47.256Z,15.23
2023-05-07T21:46:13.908Z,17.45
2023-05-07T21:48:40.665Z,15.18
2023-05-07T21:51:11.456Z,18.27
2023-05-07T21:53:38.110Z,16.03
2023-05-07T21:56:05.341Z,18.75
2023-05-07T21:58:32.274Z,16.45
2023-05-07T22:01:00.296Z,17.95
2023-05-07T22:03:27.238Z,14.63
2023-05-07T22:05:54.141Z,16.83
2023-05-07T22:08:21.037Z,17.30
2023-05-07T22:10:47.716Z,18.52
2023-05-07T22:13:14.377Z,16.42
2023-05-07T22:15:49.530Z,16.73
2023-05-07T22:18:23.191Z,17.27
2023-05-07T22:20:51.811Z,14.50
2023-05-07T22:23:18.525Z,17.25
2023-05-07T22:25:58.883Z,19.65
2023-05-07T22:28:25.888Z,15.82
2023-05-07T22:30:52.442Z,16.75
2023-05-07T22:33:19.199Z,15.97
2023-05-07T22:35:45.865Z,18.23
2023-05-07T22:38:12.421Z,15.52
2023-05-07T22:40:38.967Z,16.13
2023-05-07T22:43:05.665Z,16.10
2023-05-07T22:45:32.258Z,18.30
2023-05-07T22:47:58.859Z,14.20
2023-05-07T22:50:25.399Z,15.02
2023-05-07T22:52:51.912Z,16.13
2023-05-07T22:55:18.489Z,15.15
2023-05-07T22:57:44.986Z,18.20
2023-05-07T23:00:12.508Z,15.38
2023-05-07T23:02:39.297Z,12.52
2023-05-07T23:05:06.091Z,14.52
2023-05-07T23:07:32.666Z,14.77
2023-05-07T23:09:59.167Z,19.33
2023-05-07T23:12:25.673Z,15.52
2023-05-07T23:14:52.210Z,16.42
2023-05-07T23:17:18.709Z,19.77
2023-05-07T23:19:45.315Z,18.83
2023-05-07T23:22:12.307Z,16.07
2023-05-07T23:24:38.920Z,16.02
2023-05-07T23:27:05.997Z,15.93
2023-05-07T23:29:32.879Z,18.77
2023-05-07T23:31:59.904Z,17.60
2023-05-07T23:34:26.863Z,17.30
2023-05-07T23:36:53.942Z,16.58
2023-05-07T23:39:20.560Z,17.17
2023-05-07T23:41:47.698Z,18.02
2023-05-07T23:44:16.471Z,19.92
2023-05-07T23:46:44.410Z,19.27
2023-05-07T23:49:11.232Z,20.08
2023-05-07T23:51:37.954Z,19.63
2023-05-07T23:54:04.932Z,18.98
2023-05-07T23:56:31.570Z,16.17
2023-05-07T23:58:58.206Z,17.37
